• Join FlightAware (Why Join?)
  • Login
  • US Flag 
05:09AM EDT


 

Airport Tracker/Info


-or-


 

Live Flight TrackerFlight Track Log ✈ ASQ4892 ✈ 29-Sep-2013 ✈ KATL - KALB

Flight Track Log - Related Links

Times and Time Zones

All times are in EDT time to prevent confusion due to time zone crossing. See the ASQ4892 flight status page for this flight to view local times or setup timezone preferences in your user account.

Time Position Orientation Groundspeed Altitude Reporting Facility
EDT Latitude Longitude Course Direction KTS MPH feet Rate Location/Type
10:08AM 33.6833 -84.2167 16° North 277 319 6,800  Level Atlanta TRACON
10:09AM 33.7836 -84.1814 16° North 297 342 10,600 1,920 Climbing Atlanta Center
10:10AM 33.8692 -84.2039 348° North 313 360 11,800 1,740 Climbing Atlanta Center
10:11AM 33.9486 -84.2692 326° Northwest 321 369 14,100 2,040 Climbing Atlanta Center
10:12AM 34.0342 -84.2769 356° North 320 368 15,900 1,800 Climbing Atlanta Center
10:13AM 34.1508 -84.2797 359° North 361 415 17,800 1,560 Climbing Atlanta Center
10:14AM 34.2531 -84.2825 359° North 371 427 19,100 1,380 Climbing Atlanta Center
10:15AM 34.3639 -84.2628 North 384 442 20,600 1,620 Climbing Atlanta Center
10:16AM 34.4725 -84.2403 10° North 390 449 22,400 1,200 Climbing Atlanta Center
10:17AM 34.5831 -84.2128 12° North 390 449 23,100 1,080 Climbing Atlanta Center
10:18AM 34.6917 -84.1878 11° North 395 455 24,600 1,680 Climbing Atlanta Center
10:19AM 34.8022 -84.1628 11° North 395 455 26,500 1,740 Climbing Atlanta Center
10:20AM 34.9108 -84.1350 12° North 390 449 28,100 1,260 Climbing Atlanta Center
10:21AM 35.0214 -84.1097 11° North 390 449 29,100 960 Climbing Atlanta Center
10:22AM 35.1300 -84.0844 11° North 390 449 30,100 960 Climbing Atlanta Center
10:23AM 35.2406 -84.0567 12° North 395 455 31,100 960 Climbing Atlanta Center
10:24AM 35.3572 -84.0286 11° North 400 460 32,100 900 Climbing Atlanta Center
10:25AM 35.4700 -84.0006 11° North 411 473 33,000 900 Climbing Atlanta Center
10:26AM 35.5869 -83.9697 12° North 411 473 33,900 840 Climbing Atlanta Center
10:27AM 35.7017 -83.9467 North 411 473 34,700 540 Climbing Atlanta Center
10:28AM 35.8183 -83.9158 12° North 416 479 35,000 120 Climbing Atlanta Center
10:29AM 35.9372 -83.8719 17° North 422 486 35,000  Level Atlanta Center
10:30AM 36.0581 -83.8000 26° Northeast 445 512 35,000  Level Atlanta Center
10:31AM 36.1725 -83.7275 27° Northeast 453 521 35,000  Level Atlanta Center
10:32AM 36.2800 -83.6572 28° Northeast 458 527 35,000  Level Indianapolis Center
10:33AM 36.3914 -83.5867 27° Northeast 452 520 35,000  Level Indianapolis Center
10:34AM 36.5014 -83.5169 27° Northeast 446 513 35,000  Level Indianapolis Center
10:35AM 36.6128 -83.4475 27° Northeast 446 513 35,000  Level Indianapolis Center
10:37AM 36.7133 -83.3569 36° Northeast 450 518 35,000  Level Indianapolis Center
10:38AM 36.8297 -83.2478 37° Northeast 449 517 35,000  Level Indianapolis Center
10:39AM 36.9294 -83.1547 37° Northeast 445 512 35,000  Level Indianapolis Center
10:40AM 37.0306 -83.0614 36° Northeast 445 512 35,000  Level Indianapolis Center
10:41AM 37.1303 -82.9642 38° Northeast 445 512 35,000  Level Indianapolis Center
10:42AM 37.2297 -82.8689 37° Northeast 445 512 35,000  Level Indianapolis Center
10:43AM 37.3281 -82.7731 38° Northeast 443 510 35,000  Level Indianapolis Center
10:44AM 37.4283 -82.6781 37° Northeast 450 518 35,000  Level Indianapolis Center
10:45AM 37.5264 -82.5822 38° Northeast 445 512 35,000  Level Indianapolis Center
10:46AM 37.6253 -82.4872 37° Northeast 445 512 35,000  Level Indianapolis Center
10:47AM 37.7356 -82.3656 41° Northeast 450 518 35,000  Level Indianapolis Center
10:48AM 37.8175 -82.2417 50° Northeast 457 526 35,000  Level Indianapolis Center
10:49AM 37.8917 -82.1294 50° Northeast 461 531 35,000  Level Indianapolis Center
10:50AM 37.9739 -82.0061 50° Northeast 459 528 35,000  Level Indianapolis Center
10:51AM 38.0706 -81.8583 50° Northeast 456 525 35,000  Level Indianapolis Center
10:52AM 38.1525 -81.7344 50° Northeast 458 527 35,000  Level Indianapolis Center
10:53AM 38.2328 -81.6114 50° Northeast 455 524 35,000  Level Indianapolis Center
10:54AM 38.3122 -81.4875 51° Northeast 456 525 35,000  Level Indianapolis Center
10:55AM 38.3911 -81.3642 51° Northeast 454 522 35,000  Level Indianapolis Center
10:56AM 38.4869 -81.2161 50° Northeast 456 525 35,000  Level Indianapolis Center
10:57AM 38.5658 -81.0942 50° Northeast 450 518 35,000  Level Indianapolis Center
10:58AM 38.6456 -80.9719 50° Northeast 451 519 35,000  Level Indianapolis Center
10:59AM 38.7231 -80.8489 51° Northeast 448 516 35,000  Level Indianapolis Center
11:01AM 38.8633 -80.6356 50° Northeast 443 510 35,000  Level Cleveland Center
11:02AM 38.9225 -80.5328 53° Northeast 438 504 35,000  Level Indianapolis Center
11:03AM 39.0142 -80.3892 51° Northeast 435 501 35,000  Level Indianapolis Center
11:04AM 39.0889 -80.2697 51° Northeast 430 495 35,000  Level Indianapolis Center
11:05AM 39.1644 -80.1486 51° Northeast 434 499 35,000  Level Indianapolis Center
11:06AM 39.2408 -80.0244 52° Northeast 440 506 35,000  Level Indianapolis Center
11:07AM 39.3181 -79.9014 51° Northeast 442 509 35,000  Level Indianapolis Center
11:08AM 39.3953 -79.7761 51° Northeast 445 512 35,000  Level Indianapolis Center
11:09AM 39.4731 -79.6500 51° Northeast 447 514 35,000  Level Indianapolis Center
11:10AM 39.5669 -79.4975 51° Northeast 450 518 35,000  Level Indianapolis Center
11:11AM 39.6433 -79.3703 52° Northeast 448 516 35,000  Level Indianapolis Center
11:12AM 39.7467 -79.2056 51° Northeast 447 514 35,000  Level Cleveland Center
11:13AM 39.8239 -79.0775 52° Northeast 451 519 35,000  Level Cleveland Center
11:15AM 39.8992 -78.9519 52° Northeast 450 518 35,000  Level Cleveland Center
11:16AM 39.9753 -78.8250 52° Northeast 449 517 35,000  Level Cleveland Center
11:17AM 40.0508 -78.6986 52° Northeast 445 512 35,000  Level Cleveland Center
11:18AM 40.1397 -78.5475 52° Northeast 444 511 35,000  Level Cleveland Center
11:19AM 40.2144 -78.4206 52° Northeast 444 511 35,000  Level Cleveland Center
11:20AM 40.2883 -78.2958 52° Northeast 441 507 35,000  Level Cleveland Center
11:21AM 40.3619 -78.1706 52° Northeast 439 505 35,000  Level Cleveland Center
11:21AM 40.4078 -78.0903 53° Northeast 434 499 35,000  Level New York Center
11:22AM 40.4822 -77.9617 53° Northeast 434 499 35,000  Level New York Center
11:23AM 40.5714 -77.8317 48° Northeast 434 499 35,000  Level New York Center
11:24AM 40.6569 -77.7256 43° Northeast 429 494 35,000  Level New York Center
11:25AM 40.7408 -77.6106 46° Northeast 429 494 35,000  Level New York Center
11:26AM 40.8242 -77.5036 44° Northeast 424 488 35,000  Level New York Center
11:27AM 40.9094 -77.3939 44° Northeast 424 488 35,000  Level New York Center
11:28AM 40.9906 -77.2836 46° Northeast 424 488 35,000 -540 Level New York Center
11:29AM 41.0739 -77.1706 46° Northeast 424 488 34,000 -1,200 Descending New York Center
11:30AM 41.1567 -77.0625 44° Northeast 424 488 32,600 -1,440 Descending New York Center
11:31AM 41.2375 -76.9542 45° Northeast 424 488 31,200 -1,440 Descending New York Center
11:32AM 41.3139 -76.8478 46° Northeast 408 470 29,800 -1,140 Descending New York Center
11:33AM 41.3900 -76.7442 46° Northeast 402 463 29,000 -420 Descending New York Center
11:34AM 41.4500 -76.6664 44° Northeast 391 450 29,000 -240 Level New York Center
11:35AM 41.5281 -76.5597 46° Northeast 377 434 28,600 -900 Descending New York Center
11:36AM 41.6061 -76.4553 45° Northeast 377 434 27,300 -1,260 Descending New York Center
11:37AM 41.6886 -76.3431 45° Northeast 401 461 26,100 -1,200 Descending New York Center
11:38AM 41.7547 -76.2178 55° Northeast 411 473 24,900 -1,080 Descending New York Center
11:39AM 41.8128 -76.0833 60° Northeast 411 473 24,000 -480 Descending New York Center
11:40AM 41.8664 -75.9567 60° Northeast 404 465 24,000  Level New York Center
11:42AM 41.9539 -75.7533 60° Northeast 405 466 24,000  Level Boston Center
11:43AM 42.0103 -75.6197 60° Northeast 417 480 24,000  Level Boston Center
11:44AM 42.0781 -75.4564 61° Northeast 427 491 24,000 -420 Level Boston Center
11:45AM 42.1678 -75.3589 39° Northeast 442 509 23,200 -1,140 Descending Boston Center
11:46AM 42.2697 -75.2828 29° Northeast 413 475 21,700 -1,380 Descending Boston Center
11:47AM 42.3525 -75.1933 39° Northeast 413 475 20,400 -1,320 Descending Boston Center
11:48AM 42.3933 -75.0650 67° East 390 449 19,000 -1,260 Descending Boston Center
11:49AM 42.4228 -74.9636 68° East 374 430 17,800 -1,380 Descending Boston Center
11:50AM 42.4772 -74.7847 68° East 372 428 16,200 -1,560 Descending Boston Center
11:50AM 42.4758 -74.7736 100° East 364 419 16,100 -1,380 Descending Boston Center
11:50AM 42.4800 -74.7636 61° Northeast 364 419 16,000 -1,680 Descending Boston Center
11:51AM 42.5114 -74.6553 69° East 366 421 14,500 -1,800 Descending Boston Center
11:51AM 42.5153 -74.6364 74° East 364 419 14,200 -2,100 Descending Boston Center
11:52AM 42.5483 -74.5139 70° East 370 426 12,400 -2,100 Descending Boston Center
11:52AM 42.5447 -74.5039 116° Southeast 367 422 12,200 -1,200 Descending Boston Center
11:53AM 42.5531 -74.3817 85° East 312 359 11,000 -1,320 Descending Boston Center
11:54AM 42.5614 -74.2719 84° East 291 335 9,700 -1,500 Descending Boston Center
11:54AM 42.5600 -74.2647 105° East 278 320 9,600 -1,620 Descending Boston Center
11:55AM 42.5694 -74.1692 82° East 278 320 8,000 -1,740 Descending Boston Center
11:56AM 42.5769 -74.0589 85° East 273 314 6,200 -1,740 Descending Boston Center
11:56AM 42.5747 -74.0606 209° Southwest 273 314 6,200 -1,560 Level Boston Center
11:57AM 42.5825 -73.9614 84° East 266 306 4,600 -1,320 Descending Boston Center
11:58AM 42.5886 -73.8703 85° East 238 274 3,600 -1,020 Descending Boston Center
12:00PM 42.6194 -73.8044 58° Northeast 202 232 2,600 -960 Descending Boston Center
12:01PM 42.6678 -73.8011 North 175 201 1,700 -900 Descending Boston Center
12:01PM 42.6739 -73.8022 352° North 183 211 1,700 -840 Level Boston Center
12:02PM 42.7122 -73.8044 358° North 154 177 900 -840 Descending Boston Center
12:02PM 42.7164 -73.8036 North 159 183 900 -480 Level Boston Center
12:03PM 42.7544 -73.8067 357° North 141 162 400 -480 Descending Boston Center
12:05PM 42.7491 -73.8020 180° South  Level Estimated